sensor_id;sensor_type;location;lat;lon;timestamp;temperature;humidity
11619;DHT22;5865;48.776;9.280;2023-04-26T03:03:40;3.30;99.90
11619;DHT22;5865;48.776;9.280;2023-04-26T03:06:07;3.30;99.90
11619;DHT22;5865;48.776;9.280;2023-04-26T03:08:34;3.30;99.90
11619;DHT22;5865;48.776;9.280;2023-04-26T03:15:58;3.40;99.90
11619;DHT22;5865;48.776;9.280;2023-04-26T03:18:26;3.30;99.90
11619;DHT22;5865;48.776;9.280;2023-04-26T03:20:56;3.30;99.90
11619;DHT22;5865;48.776;9.280;2023-04-26T03:25:52;3.10;99.90
11619;DHT22;5865;48.776;9.280;2023-04-26T03:28:19;3.10;99.90
11619;DHT22;5865;48.776;9.280;2023-04-26T03:30:46;3.10;99.90
11619;DHT22;5865;48.776;9.280;2023-04-26T03:43:06;3.10;99.90
11619;DHT22;5865;48.776;9.280;2023-04-26T03:45:34;2.90;99.90
11619;DHT22;5865;48.776;9.280;2023-04-26T03:48:01;2.90;99.90
11619;DHT22;5865;48.776;9.280;2023-04-26T03:52:55;2.60;99.90
11619;DHT22;5865;48.776;9.280;2023-04-26T04:05:23;2.10;99.90
11619;DHT22;5865;48.776;9.280;2023-04-26T04:10:19;2.00;99.90
11619;DHT22;5865;48.776;9.280;2023-04-26T04:12:49;1.80;99.90
11619;DHT22;5865;48.776;9.280;2023-04-26T04:30:10;1.50;99.90
11619;DHT22;5865;48.776;9.280;2023-04-26T13:19:08;18.40;55.60
11619;DHT22;5865;48.776;9.280;2023-04-26T13:21:35;19.90;54.90
11619;DHT22;5865;48.776;9.280;2023-04-26T13:26:30;21.10;50.10
11619;DHT22;5865;48.776;9.280;2023-04-26T13:28:57;20.90;52.60
11619;DHT22;5865;48.776;9.280;2023-04-26T13:31:24;21.40;50.30
11619;DHT22;5865;48.776;9.280;2023-04-26T13:33:53;20.50;50.50
11619;DHT22;5865;48.776;9.280;2023-04-26T13:36:20;20.30;52.60
11619;DHT22;5865;48.776;9.280;2023-04-26T13:38:47;19.80;50.00
11619;DHT22;5865;48.776;9.280;2023-04-26T13:41:14;22.70;48.90
11619;DHT22;5865;48.776;9.280;2023-04-26T13:43:41;21.80;46.10
11619;DHT22;5865;48.776;9.280;2023-04-26T13:46:08;20.70;45.50
11619;DHT22;5865;48.776;9.280;2023-04-26T13:48:35;19.80;47.70
11619;DHT22;5865;48.776;9.280;2023-04-26T13:51:04;18.50;50.30
11619;DHT22;5865;48.776;9.280;2023-04-26T13:53:31;20.20;49.60
11619;DHT22;5865;48.776;9.280;2023-04-26T13:55:59;22.50;45.90
11619;DHT22;5865;48.776;9.280;2023-04-26T13:58:26;23.00;46.20
11619;DHT22;5865;48.776;9.280;2023-04-26T14:00:53;21.20;46.70
11619;DHT22;5865;48.776;9.280;2023-04-26T14:03:20;20.60;48.70
11619;DHT22;5865;48.776;9.280;2023-04-26T14:08:16;19.60;49.70
11619;DHT22;5865;48.776;9.280;2023-04-26T14:10:43;18.60;51.00
11619;DHT22;5865;48.776;9.280;2023-04-26T14:13:10;18.10;51.90
11619;DHT22;5865;48.776;9.280;2023-04-26T14:15:37;16.40;55.50
11619;DHT22;5865;48.776;9.280;2023-04-26T14:18:04;16.50;56.10
11619;DHT22;5865;48.776;9.280;2023-04-26T14:20:31;17.10;54.10
11619;DHT22;5865;48.776;9.280;2023-04-26T14:22:58;16.90;56.00
11619;DHT22;5865;48.776;9.280;2023-04-26T14:25:26;16.10;56.00
11619;DHT22;5865;48.776;9.280;2023-04-26T14:27:53;16.00;57.40
11619;DHT22;5865;48.776;9.280;2023-04-26T14:30:20;16.20;57.20
11619;DHT22;5865;48.776;9.280;2023-04-26T14:32:49;16.30;57.80
11619;DHT22;5865;48.776;9.280;2023-04-26T14:35:16;16.10;57.00
11619;DHT22;5865;48.776;9.280;2023-04-26T14:37:43;16.10;57.50
11619;DHT22;5865;48.776;9.280;2023-04-26T14:40:11;16.40;56.70
11619;DHT22;5865;48.776;9.280;2023-04-26T14:42:39;16.70;57.10
11619;DHT22;5865;48.776;9.280;2023-04-26T14:45:10;17.40;55.60
11619;DHT22;5865;48.776;9.280;2023-04-26T14:47:37;17.30;55.00
11619;DHT22;5865;48.776;9.280;2023-04-26T14:50:05;16.80;55.30
11619;DHT22;5865;48.776;9.280;2023-04-26T14:52:34;17.20;55.00
11619;DHT22;5865;48.776;9.280;2023-04-26T14:55:01;17.20;55.90
11619;DHT22;5865;48.776;9.280;2023-04-26T14:57:28;18.10;53.40
11619;DHT22;5865;48.776;9.280;2023-04-26T14:59:57;18.20;53.30
11619;DHT22;5865;48.776;9.280;2023-04-26T15:02:31;17.70;54.40
11619;DHT22;5865;48.776;9.280;2023-04-26T15:04:58;17.80;55.10
11619;DHT22;5865;48.776;9.280;2023-04-26T15:07:27;17.60;54.20
11619;DHT22;5865;48.776;9.280;2023-04-26T15:09:53;19.30;54.10
11619;DHT22;5865;48.776;9.280;2023-04-26T15:12:20;21.40;49.40
11619;DHT22;5865;48.776;9.280;2023-04-26T15:14:47;19.80;51.10
11619;DHT22;5865;48.776;9.280;2023-04-26T15:17:16;19.90;51.20
11619;DHT22;5865;48.776;9.280;2023-04-26T15:19:43;20.50;50.30
11619;DHT22;5865;48.776;9.280;2023-04-26T15:22:10;21.30;48.50
11619;DHT22;5865;48.776;9.280;2023-04-26T15:27:04;19.30;48.40
11619;DHT22;5865;48.776;9.280;2023-04-26T15:29:32;18.10;51.10
11619;DHT22;5865;48.776;9.280;2023-04-26T15:31:59;17.00;54.00
11619;DHT22;5865;48.776;9.280;2023-04-26T15:36:58;17.00;54.70
11619;DHT22;5865;48.776;9.280;2023-04-26T15:39:25;16.10;58.60
11619;DHT22;5865;48.776;9.280;2023-04-26T15:41:52;16.30;56.40
11619;DHT22;5865;48.776;9.280;2023-04-26T15:44:19;16.10;56.40
11619;DHT22;5865;48.776;9.280;2023-04-26T15:46:46;15.80;56.20
11619;DHT22;5865;48.776;9.280;2023-04-26T15:49:13;15.60;57.50
11619;DHT22;5865;48.776;9.280;2023-04-26T15:51:42;15.50;57.10
11619;DHT22;5865;48.776;9.280;2023-04-26T15:54:09;15.30;58.10
11619;DHT22;5865;48.776;9.280;2023-04-26T15:56:38;15.10;58.00
11619;DHT22;5865;48.776;9.280;2023-04-26T15:59:05;15.00;58.70
11619;DHT22;5865;48.776;9.280;2023-04-26T16:01:32;14.90;59.00
11619;DHT22;5865;48.776;9.280;2023-04-26T16:04:00;14.90;59.20
11619;DHT22;5865;48.776;9.280;2023-04-26T16:06:26;14.70;59.00
11619;DHT22;5865;48.776;9.280;2023-04-26T16:08:55;14.70;59.30
11619;DHT22;5865;48.776;9.280;2023-04-26T16:11:23;14.70;59.80
11619;DHT22;5865;48.776;9.280;2023-04-26T16:13:50;14.30;61.90
11619;DHT22;5865;48.776;9.280;2023-04-26T16:16:18;14.00;63.80
11619;DHT22;5865;48.776;9.280;2023-04-26T16:18:45;14.00;63.70
11619;DHT22;5865;48.776;9.280;2023-04-26T16:23:40;14.00;63.30
11619;DHT22;5865;48.776;9.280;2023-04-26T16:26:08;13.90;62.50
11619;DHT22;5865;48.776;9.280;2023-04-26T16:28:36;13.90;64.50
11619;DHT22;5865;48.776;9.280;2023-04-26T16:31:03;13.80;64.60
11619;DHT22;5865;48.776;9.280;2023-04-26T16:33:31;13.50;64.50
11619;DHT22;5865;48.776;9.280;2023-04-26T16:38:26;13.10;65.90
11619;DHT22;5865;48.776;9.280;2023-04-26T16:40:53;13.20;67.60
11619;DHT22;5865;48.776;9.280;2023-04-26T16:43:24;13.00;67.40
11619;DHT22;5865;48.776;9.280;2023-04-26T16:45:58;13.00;66.60
11619;DHT22;5865;48.776;9.280;2023-04-26T16:48:26;12.90;67.50
11619;DHT22;5865;48.776;9.280;2023-04-26T16:50:53;12.90;68.50
11619;DHT22;5865;48.776;9.280;2023-04-26T16:53:20;12.80;67.90
11619;DHT22;5865;48.776;9.280;2023-04-26T16:55:47;12.60;68.90
11619;DHT22;5865;48.776;9.280;2023-04-26T16:58:15;12.70;69.70
11619;DHT22;5865;48.776;9.280;2023-04-26T17:00:43;12.70;70.10
11619;DHT22;5865;48.776;9.280;2023-04-26T17:05:39;13.20;69.90
11619;DHT22;5865;48.776;9.280;2023-04-26T17:08:07;13.20;69.30
11619;DHT22;5865;48.776;9.280;2023-04-26T17:10:35;13.10;69.50
11619;DHT22;5865;48.776;9.280;2023-04-26T17:13:03;12.90;70.50
11619;DHT22;5865;48.776;9.280;2023-04-26T17:15:31;12.80;71.00
11619;DHT22;5865;48.776;9.280;2023-04-26T17:18:00;12.80;71.70
11619;DHT22;5865;48.776;9.280;2023-04-26T17:20:28;12.90;72.30
11619;DHT22;5865;48.776;9.280;2023-04-26T17:22:55;13.00;72.40
11619;DHT22;5865;48.776;9.280;2023-04-26T17:25:22;12.70;70.80
11619;DHT22;5865;48.776;9.280;2023-04-26T17:27:49;12.70;71.20
11619;DHT22;5865;48.776;9.280;2023-04-26T17:30:17;12.70;71.90
11619;DHT22;5865;48.776;9.280;2023-04-26T17:32:44;12.50;70.20
11619;DHT22;5865;48.776;9.280;2023-04-26T17:40:08;12.10;72.70
11619;DHT22;5865;48.776;9.280;2023-04-26T17:42:35;12.00;72.60
11619;DHT22;5865;48.776;9.280;2023-04-26T17:45:02;11.90;71.50
11619;DHT22;5865;48.776;9.280;2023-04-26T17:47:30;11.80;72.50
11619;DHT22;5865;48.776;9.280;2023-04-26T17:49:57;11.90;74.30
11619;DHT22;5865;48.776;9.280;2023-04-26T17:52:26;11.80;75.00
11619;DHT22;5865;48.776;9.280;2023-04-26T17:54:53;11.80;74.80
11619;DHT22;5865;48.776;9.280;2023-04-26T17:57:20;11.80;74.30
11619;DHT22;5865;48.776;9.280;2023-04-26T18:02:16;11.60;74.50
11619;DHT22;5865;48.776;9.280;2023-04-26T18:04:43;11.40;76.70
11619;DHT22;5865;48.776;9.280;2023-04-26T18:07:11;11.20;77.80
11619;DHT22;5865;48.776;9.280;2023-04-26T18:12:07;10.90;79.50
11619;DHT22;5865;48.776;9.280;2023-04-26T18:14:34;10.70;81.50
11619;DHT22;5865;48.776;9.280;2023-04-26T18:17:03;10.40;82.70
11619;DHT22;5865;48.776;9.280;2023-04-26T18:19:30;10.20;84.00
11619;DHT22;5865;48.776;9.280;2023-04-26T18:24:25;10.00;86.10
11619;DHT22;5865;48.776;9.280;2023-04-26T18:26:53;9.90;87.10
11619;DHT22;5865;48.776;9.280;2023-04-26T18:29:20;9.80;89.30
11619;DHT22;5865;48.776;9.280;2023-04-26T18:44:09;8.80;99.90
11619;DHT22;5865;48.776;9.280;2023-04-26T18:46:39;8.60;99.90
11619;DHT22;5865;48.776;9.280;2023-04-26T18:51:35;8.30;99.90
11619;DHT22;5865;48.776;9.280;2023-04-26T19:48:47;9.10;99.90
11619;DHT22;5865;48.776;9.280;2023-04-26T19:51:16;9.00;99.90
11619;DHT22;5865;48.776;9.280;2023-04-26T19:58:39;8.90;99.90
11619;DHT22;5865;48.776;9.280;2023-04-26T20:01:07;8.90;99.90
11619;DHT22;5865;48.776;9.280;2023-04-26T20:06:22;8.90;99.90
11619;DHT22;5865;48.776;9.280;2023-04-26T20:21:25;8.90;99.90
11619;DHT22;5865;48.776;9.280;2023-04-26T20:23:52;8.90;99.90
11619;DHT22;5865;48.776;9.280;2023-04-26T20:36:36;8.70;99.90
11619;DHT22;5865;48.776;9.280;2023-04-26T20:44:06;8.60;99.90
11619;DHT22;5865;48.776;9.280;2023-04-26T21:06:22;8.20;99.90
11619;DHT22;5865;48.776;9.280;2023-04-26T21:31:29;8.00;99.90
11619;DHT22;5865;48.776;9.280;2023-04-26T21:43:51;7.80;99.90
11619;DHT22;5865;48.776;9.280;2023-04-26T22:01:14;7.40;99.90
11619;DHT22;5865;48.776;9.280;2023-04-26T22:18:31;7.10;99.90
11619;DHT22;5865;48.776;9.280;2023-04-26T22:20:57;7.10;99.90
11619;DHT22;5865;48.776;9.280;2023-04-26T22:25:51;7.20;99.90
11619;DHT22;5865;48.776;9.280;2023-04-26T22:30:45;7.10;99.90
11619;DHT22;5865;48.776;9.280;2023-04-26T22:35:43;7.00;99.90
11619;DHT22;5865;48.776;9.280;2023-04-26T22:38:11;6.90;99.90
11619;DHT22;5865;48.776;9.280;2023-04-26T22:40:39;7.00;99.90
11619;DHT22;5865;48.776;9.280;2023-04-26T22:45:40;7.00;99.90
11619;DHT22;5865;48.776;9.280;2023-04-26T22:53:05;6.90;99.90
11619;DHT22;5865;48.776;9.280;2023-04-26T23:02:53;6.70;99.90
11619;DHT22;5865;48.776;9.280;2023-04-26T23:20:13;6.60;99.90
11619;DHT22;5865;48.776;9.280;2023-04-26T23:28:16;6.60;99.90
11619;DHT22;5865;48.776;9.280;2023-04-26T23:33:38;6.50;99.90
11619;DHT22;5865;48.776;9.280;2023-04-26T23:55:07;6.30;99.90
11619;DHT22;5865;48.776;9.280;2023-04-26T23:57:34;6.30;99.90
